Time;durP1;ratioP1;P1;durP2;ratioP2;P2;SDS_P1;SDS_P2;PMS_P1;PMS_P2;Temp;Humidity;BMP_temperature;BMP_pressure;BME280_temperature;BME280_humidity;BME280_pressure;Samples;Min_cycle;Max_cycle;Signal;HPM_P1;HPM_P2
2022/10/22 00:00:10;;;;;;;;;;;;;;;14.77;53.11;99945.53;4302424;33;19992;-88
2022/10/22 00:02:37;;;;;;;;;;;;;;;14.81;53.34;99946.41;4308310;33;20413;-87
2022/10/22 00:05:04;;;;;;;;;;;;;;;14.61;54.24;99943.75;4298329;33;20048;-87
2022/10/22 00:07:31;;;;;;;;;;;;;;;14.59;54.71;99950.72;4316434;33;21479;-87
2022/10/22 00:09:58;;;;;;;;;;;;;;;14.55;54.97;99943.75;4307770;33;19984;-87
2022/10/22 00:12:25;;;;;;;;;;;;;;;14.61;54.34;99948.97;4303820;33;20052;-87
2022/10/22 00:14:52;;;;;;;;;;;;;;;14.64;53.97;99946.38;4308724;33;20003;-88
2022/10/22 00:17:20;;;;;;;;;;;;;;;14.74;53.66;99940.31;4296077;33;19984;-87
2022/10/22 00:19:46;;;;;;;;;;;;;;;14.70;54.18;99943.78;4307163;33;19981;-87
2022/10/22 00:22:13;;;;;;;;;;;;;;;14.53;55.00;99950.72;4308318;33;20328;-88
2022/10/22 00:24:40;;;;;;;;;;;;;;;14.59;54.74;99950.72;4299182;33;20015;-85
2022/10/22 00:27:08;;;;;;;;;;;;;;;14.67;53.86;99946.38;4303403;33;20892;-88
2022/10/22 00:29:34;;;;;;;;;;;;;;;14.67;53.85;99938.56;4308287;33;20402;-88
2022/10/22 00:32:02;;;;;;;;;;;;;;;14.59;54.92;99940.31;4315729;33;19984;-86
2022/10/22 00:34:28;;;;;;;;;;;;;;;14.45;55.93;99941.97;4296072;33;20003;-88
2022/10/22 00:36:55;;;;;;;;;;;;;;;14.64;54.75;99943.75;4302063;33;19999;-88
2022/10/22 00:39:23;;;;;;;;;;;;;;;14.49;55.46;99938.53;4312088;33;20727;-87
2022/10/22 00:41:50;;;;;;;;;;;;;;;14.64;54.73;99938.56;4303171;33;20302;-87
2022/10/22 00:44:36;;;;;;;;;;;;;;;14.60;54.60;99931.63;4309790;33;19997;-87
2022/10/22 00:47:03;;;;;;;;;;;;;;;14.68;53.94;99919.47;4297010;33;20512;-87
2022/10/22 00:49:30;;;;;;;;;;;;;;;14.52;54.41;99918.59;4308668;33;19976;-88
2022/10/22 00:51:56;;;;;;;;;;;;;;;14.68;54.41;99916.87;4290645;33;19988;-87
2022/10/22 00:54:23;;;;;;;;;;;;;;;14.57;55.16;99921.19;4297040;33;20381;-87
2022/10/22 00:56:50;;;;;;;;;;;;;;;14.62;55.03;99919.47;4307957;33;20035;-88
2022/10/22 00:59:17;;;;;;;;;;;;;;;14.65;54.78;99924.69;4303278;33;20028;-88
2022/10/22 01:01:45;;;;;;;;;;;;;;;14.61;54.79;99928.12;4296786;33;20032;-87
2022/10/22 01:04:13;;;;;;;;;;;;;;;14.70;54.26;99928.12;4288460;33;20006;-86
2022/10/22 01:06:40;;;;;;;;;;;;;;;14.75;54.15;99926.41;4312139;33;19998;-88
2022/10/22 01:09:13;;;;;;;;;;;;;;;14.80;54.42;99924.66;4316185;33;19980;-86
2022/10/22 01:11:48;;;;;;;;;;;;;;;14.59;55.05;99924.69;4311589;33;19996;-87
2022/10/22 01:14:18;;;;;;;;;;;;;;;14.53;55.41;99930.75;4313319;33;19992;-88
2022/10/22 01:16:51;;;;;;;;;;;;;;;14.61;55.03;99925.53;4316210;33;19996;-88
2022/10/22 01:19:37;;;;;;;;;;;;;;;14.43;55.86;99929.81;4311441;33;19991;-86
2022/10/22 01:22:08;;;;;;;;;;;;;;;14.53;55.58;99929.88;4316051;33;20394;-88
2022/10/22 01:24:38;;;;;;;;;;;;;;;14.55;55.51;99928.12;4314834;33;19980;-85
2022/10/22 01:27:10;;;;;;;;;;;;;;;14.61;55.02;99928.12;4316450;33;19984;-88
2022/10/22 01:29:39;;;;;;;;;;;;;;;14.63;54.39;99918.59;4316926;33;19984;-88
2022/10/22 01:32:07;;;;;;;;;;;;;;;14.73;54.07;99922.94;4312714;33;20306;-87
2022/10/22 01:34:34;;;;;;;;;;;;;;;14.42;55.36;99938.50;4324248;33;20043;-88
2022/10/22 01:37:01;;;;;;;;;;;;;;;14.72;54.03;99926.41;4323127;33;20456;-88
2022/10/22 01:39:28;;;;;;;;;;;;;;;14.74;53.96;99924.69;4317257;33;20015;-87
2022/10/22 01:41:55;;;;;;;;;;;;;;;14.67;54.42;99927.28;4309612;33;20016;-87
2022/10/22 01:44:25;;;;;;;;;;;;;;;14.72;54.15;99920.34;4309822;33;20302;-88
2022/10/22 01:47:01;;;;;;;;;;;;;;;14.65;54.29;99920.34;4316453;33;19991;-88
2022/10/22 01:49:32;;;;;;;;;;;;;;;14.63;54.15;99926.41;4309142;33;19971;-85
2022/10/22 01:52:09;;;;;;;;;;;;;;;14.64;54.05;99917.72;4312010;33;19991;-87
2022/10/22 01:54:43;;;;;;;;;;;;;;;14.58;54.47;99912.50;4315793;33;20007;-86
2022/10/22 01:57:10;;;;;;;;;;;;;;;14.76;53.81;99907.31;4311097;33;19988;-88
2022/10/22 01:59:37;;;;;;;;;;;;;;;14.63;54.59;99906.44;4312654;33;19987;-85
2022/10/22 02:02:04;;;;;;;;;;;;;;;14.15;56.06;99917.59;4317250;33;20500;-89
2022/10/22 02:04:36;;;;;;;;;;;;;;;14.36;55.11;99915.06;4315970;33;19988;-86
2022/10/22 02:07:04;;;;;;;;;;;;;;;14.40;54.68;99916.78;4312041;33;19972;-88
2022/10/22 02:09:30;;;;;;;;;;;;;;;14.64;53.49;99902.09;4317501;33;20074;-87
2022/10/22 02:11:58;;;;;;;;;;;;;;;14.59;53.50;99903.84;4309448;33;19992;-85
2022/10/22 02:14:25;;;;;;;;;;;;;;;14.52;53.78;99892.53;4309320;33;20417;-87
2022/10/22 02:16:51;;;;;;;;;;;;;;;14.52;54.40;99896.88;4309168;33;20039;-87
2022/10/22 02:19:22;;;;;;;;;;;;;;;14.60;54.29;99895.16;4309576;33;19980;-89
2022/10/22 02:21:49;;;;;;;;;;;;;;;14.54;54.82;99900.34;4317115;33;19995;-86
2022/10/22 02:24:16;;;;;;;;;;;;;;;14.49;54.99;99917.69;4309216;33;19992;-85
2022/10/22 02:27:06;;;;;;;;;;;;;;;14.41;54.95;99905.50;4305462;33;19989;-85
2022/10/22 02:29:40;;;;;;;;;;;;;;;14.34;54.81;99906.38;4308376;33;20036;-88
2022/10/22 02:32:08;;;;;;;;;;;;;;;14.16;55.35;99914.12;4308800;33;20067;-86
2022/10/22 02:34:34;;;;;;;;;;;;;;;14.41;54.81;99904.63;3568542;33;10003930;-84
2022/10/22 02:37:01;;;;;;;;;;;;;;;14.23;55.37;99904.59;4316768;33;20011;-88
2022/10/22 02:39:29;;;;;;;;;;;;;;;14.07;55.65;99901.09;4316003;33;20034;-86
2022/10/22 02:41:56;;;;;;;;;;;;;;;14.17;55.43;99914.16;4308696;33;20751;-88
2022/10/22 02:44:23;;;;;;;;;;;;;;;14.21;54.98;99911.56;4302769;33;20031;-86
2022/10/22 02:46:50;;;;;;;;;;;;;;;14.26;54.99;99921.09;4311219;33;20003;-87
2022/10/22 02:49:17;;;;;;;;;;;;;;;14.23;55.25;99928.03;4310217;33;19992;-89
2022/10/22 02:51:43;;;;;;;;;;;;;;;14.12;55.32;99938.41;4318629;33;20055;-87
2022/10/22 02:54:10;;;;;;;;;;;;;;;14.04;55.21;99934.91;4310005;33;19992;-87
2022/10/22 02:56:37;;;;;;;;;;;;;;;14.30;54.35;99933.28;4310293;33;20021;-88
2022/10/22 02:59:04;;;;;;;;;;;;;;;14.00;55.57;99934.03;4316935;33;19991;-85
2022/10/22 03:01:31;;;;;;;;;;;;;;;14.12;55.09;99922.81;4310744;33;20801;-87
2022/10/22 03:03:58;;;;;;;;;;;;;;;14.08;55.28;99926.28;4310725;33;20044;-87
2022/10/22 03:06:24;;;;;;;;;;;;;;;14.15;54.79;99923.69;4318746;33;20534;-87
2022/10/22 03:08:56;;;;;;;;;;;;;;;14.01;54.93;99924.47;4300308;33;19987;-84
2022/10/22 03:11:23;;;;;;;;;;;;;;;14.07;54.68;99924.50;4312142;33;19988;-87
2022/10/22 03:13:50;;;;;;;;;;;;;;;13.89;54.93;99915.78;4301076;33;20006;-85
2022/10/22 03:16:17;;;;;;;;;;;;;;;14.03;54.21;99912.34;4289871;33;20000;-83
2022/10/22 03:18:43;;;;;;;;;;;;;;;13.87;54.83;99907.09;4296337;33;20909;-86
2022/10/22 03:21:19;;;;;;;;;;;;;;;13.84;54.81;99907.09;4297707;33;19995;-88
2022/10/22 03:23:46;;;;;;;;;;;;;;;13.73;55.21;99903.59;4283367;33;20023;-86
2022/10/22 03:26:13;;;;;;;;;;;;;;;13.78;54.96;99901.84;4307107;33;19988;-87
2022/10/22 03:28:39;;;;;;;;;;;;;;;13.71;55.21;99900.09;4307277;33;19984;-87
2022/10/22 03:31:06;;;;;;;;;;;;;;;13.77;54.91;99889.72;4296268;33;20008;-87
2022/10/22 03:33:33;;;;;;;;;;;;;;;13.67;55.32;99899.22;4296052;33;20000;-88
2022/10/22 03:36:00;;;;;;;;;;;;;;;13.61;55.44;99903.53;4305298;33;20011;-88
2022/10/22 03:38:27;;;;;;;;;;;;;;;13.63;55.25;99887.06;4309755;33;20492;-88
2022/10/22 03:40:54;;;;;;;;;;;;;;;13.49;55.66;99894.78;4290359;33;20000;-88
2022/10/22 03:43:21;;;;;;;;;;;;;;;12.68;58.10;99895.94;4296188;33;20001;-84
2022/10/22 03:45:48;;;;;;;;;;;;;;;12.59;58.11;99895.88;4295680;33;20990;-87
2022/10/22 03:48:14;;;;;;;;;;;;;;;13.17;56.11;99891.09;4295859;33;19988;-86
2022/10/22 03:50:41;;;;;;;;;;;;;;;13.16;56.19;99878.97;4297482;33;20346;-88
2022/10/22 03:53:09;;;;;;;;;;;;;;;13.58;55.07;99882.69;4307340;33;20048;-88
2022/10/22 03:55:37;;;;;;;;;;;;;;;13.47;55.33;99875.72;4296255;33;19995;-84
2022/10/22 03:58:04;;;;;;;;;;;;;;;13.11;56.77;99873.72;4297526;33;20040;-87
2022/10/22 04:00:31;;;;;;;;;;;;;;;13.35;55.88;99873.06;4301335;33;19980;-88
2022/10/22 04:02:58;;;;;;;;;;;;;;;13.26;56.20;99880.81;4309436;33;20371;-87
2022/10/22 04:05:25;;;;;;;;;;;;;;;13.37;55.83;99893.84;4301591;33;20093;-87
2022/10/22 04:07:52;;;;;;;;;;;;;;;13.39;55.76;99898.19;4310146;33;19983;-86
2022/10/22 04:10:19;;;;;;;;;;;;;;;13.19;56.56;99902.41;4311117;33;19980;-86
2022/10/22 04:12:46;;;;;;;;;;;;;;;13.42;55.55;99898.22;4295448;33;20026;-86
2022/10/22 04:15:13;;;;;;;;;;;;;;;13.06;56.76;99897.97;4311718;33;20007;-88
2022/10/22 04:17:40;;;;;;;;;;;;;;;13.39;55.81;99895.59;4310409;33;19996;-87
2022/10/22 04:20:07;;;;;;;;;;;;;;;13.42;55.86;99893.03;4311667;33;19977;-84
2022/10/22 04:22:34;;;;;;;;;;;;;;;13.38;55.95;99900.81;4310583;33;20055;-87
2022/10/22 04:25:02;;;;;;;;;;;;;;;13.15;56.51;99892.84;4312536;33;20001;-86
2022/10/22 04:27:30;;;;;;;;;;;;;;;13.27;56.06;99898.12;4325712;33;19980;-85
2022/10/22 04:29:56;;;;;;;;;;;;;;;13.20;56.30;99891.12;4322589;33;19992;-85
2022/10/22 04:32:24;;;;;;;;;;;;;;;13.05;56.57;99891.91;4306808;33;19992;-85
2022/10/22 04:34:51;;;;;;;;;;;;;;;13.35;55.53;99886.06;4310443;33;20333;-85
2022/10/22 04:37:17;;;;;;;;;;;;;;;13.19;56.08;99889.41;4297233;33;20011;-82
2022/10/22 04:39:44;;;;;;;;;;;;;;;13.08;56.50;99883.25;4296634;33;20349;-84
2022/10/22 04:42:11;;;;;;;;;;;;;;;13.27;55.89;99898.12;4303813;33;20007;-85
2022/10/22 04:44:38;;;;;;;;;;;;;;;13.26;55.83;99891.19;4295915;33;19992;-82
2022/10/22 04:47:05;;;;;;;;;;;;;;;13.28;55.61;99889.50;4296926;33;19984;-82
2022/10/22 04:49:31;;;;;;;;;;;;;;;13.24;55.71;99892.88;4315741;33;19984;-85
2022/10/22 04:51:58;;;;;;;;;;;;;;;13.36;55.24;99879.97;4309430;33;19989;-84
2022/10/22 04:54:25;;;;;;;;;;;;;;;13.42;55.05;99874.81;4301806;33;20349;-85
2022/10/22 04:56:57;;;;;;;;;;;;;;;13.35;55.28;99880.84;4296393;33;19988;-85
2022/10/22 04:59:24;;;;;;;;;;;;;;;13.34;55.51;99884.34;3673876;33;11130100;-86
2022/10/22 05:01:51;;;;;;;;;;;;;;;13.17;56.07;99885.91;4321147;33;20330;-86
2022/10/22 05:04:18;;;;;;;;;;;;;;;13.22;55.83;99892.03;4319879;33;20008;-87
2022/10/22 05:06:45;;;;;;;;;;;;;;;13.23;55.77;99889.41;4307932;33;20004;-86
2022/10/22 05:09:13;;;;;;;;;;;;;;;13.20;55.69;99885.94;4306939;33;20101;-82
2022/10/22 05:11:42;;;;;;;;;;;;;;;13.08;56.21;99894.53;4296803;33;19977;-85
2022/10/22 05:14:09;;;;;;;;;;;;;;;13.29;55.51;99888.63;4308888;33;19985;-84
2022/10/22 05:16:37;;;;;;;;;;;;;;;13.13;55.91;99878.97;4313457;33;19984;-85
2022/10/22 05:19:04;;;;;;;;;;;;;;;13.17;55.67;99891.97;4296734;33;19992;-85
2022/10/22 05:21:31;;;;;;;;;;;;;;;13.07;55.91;99891.91;4304251;33;19976;-83
2022/10/22 05:24:01;;;;;;;;;;;;;;;12.79;56.58;99894.28;4307322;33;20323;-84
2022/10/22 05:26:28;;;;;;;;;;;;;;;12.92;56.41;99895.25;4305817;33;19991;-83
2022/10/22 05:28:54;;;;;;;;;;;;;;;12.96;56.44;99892.72;4314124;33;19995;-82
2022/10/22 05:31:22;;;;;;;;;;;;;;;13.04;56.23;99900.56;4307417;33;20334;-83
2022/10/22 05:33:48;;;;;;;;;;;;;;;12.97;56.46;99894.44;4307052;33;19989;-84
2022/10/22 05:36:16;;;;;;;;;;;;;;;12.98;56.37;99887.50;4315445;33;19992;-85
2022/10/22 05:38:43;;;;;;;;;;;;;;;12.75;56.72;99893.41;4315235;33;19992;-82
2022/10/22 05:41:11;;;;;;;;;;;;;;;12.56;57.82;99892.38;4308660;33;19991;-82
2022/10/22 05:43:38;;;;;;;;;;;;;;;12.84;56.98;99882.22;4298291;33;20019;-82
2022/10/22 05:46:06;;;;;;;;;;;;;;;12.95;56.73;99885.75;4302553;33;19988;-83
2022/10/22 05:48:33;;;;;;;;;;;;;;;12.90;56.95;99890.06;4315570;33;20849;-83
2022/10/22 05:51:04;;;;;;;;;;;;;;;13.00;56.63;99885.81;4296488;33;19999;-84
2022/10/22 05:53:31;;;;;;;;;;;;;;;13.03;56.63;99907.47;4306864;33;19988;-82
2022/10/22 05:55:59;;;;;;;;;;;;;;;12.80;57.47;99909.03;4298146;33;19999;-84
2022/10/22 05:58:27;;;;;;;;;;;;;;;12.89;57.27;99901.34;4307393;33;19992;-86
2022/10/22 06:00:54;;;;;;;;;;;;;;;12.88;57.23;99899.56;4311431;33;20263;-84
2022/10/22 06:03:21;;;;;;;;;;;;;;;12.94;57.08;99899.63;4316932;33;20402;-80
2022/10/22 06:05:47;;;;;;;;;;;;;;;13.12;56.76;99911.03;4304708;33;20000;-80
2022/10/22 06:08:14;;;;;;;;;;;;;;;13.08;57.17;99924.81;4303366;33;19981;-82
2022/10/22 06:10:45;;;;;;;;;;;;;;;13.11;57.04;99927.44;4306461;33;19995;-81
2022/10/22 06:13:11;;;;;;;;;;;;;;;12.83;58.16;99932.44;4294716;33;19999;-81
2022/10/22 06:15:38;;;;;;;;;;;;;;;13.02;57.66;99939.53;4295651;33;20311;-81
2022/10/22 06:18:05;;;;;;;;;;;;;;;13.10;57.49;99936.12;4299623;33;20362;-84
2022/10/22 06:20:33;;;;;;;;;;;;;;;13.08;57.83;99930.03;4316157;33;19984;-81
2022/10/22 06:22:59;;;;;;;;;;;;;;;12.97;58.22;99924.75;4299028;33;20003;-83
2022/10/22 06:25:26;;;;;;;;;;;;;;;13.33;57.37;99923.31;4316119;33;20322;-80
2022/10/22 06:27:53;;;;;;;;;;;;;;;13.33;57.51;99928.50;4321001;33;19979;-83
2022/10/22 06:30:19;;;;;;;;;;;;;;;13.33;57.36;99926.75;4310978;33;19992;-83
2022/10/22 06:32:46;;;;;;;;;;;;;;;13.46;57.16;99918.19;4305392;33;19995;-82
2022/10/22 06:35:13;;;;;;;;;;;;;;;13.51;56.91;99922.56;4314464;33;20006;-83
2022/10/22 06:37:40;;;;;;;;;;;;;;;13.31;57.70;99925.91;4315342;33;19988;-84
2022/10/22 06:40:08;;;;;;;;;;;;;;;13.60;57.20;99925.19;4326517;33;19980;-83
2022/10/22 06:42:34;;;;;;;;;;;;;;;13.42;58.28;99939.81;4314745;33;20365;-84
2022/10/22 06:45:01;;;;;;;;;;;;;;;13.34;58.43;99951.94;4314182;33;20002;-83
2022/10/22 06:47:33;;;;;;;;;;;;;;;13.72;57.13;99948.69;4321469;33;20003;-86
2022/10/22 06:49:59;;;;;;;;;;;;;;;13.68;57.78;99941.69;4321093;33;19990;-85
2022/10/22 06:52:26;;;;;;;;;;;;;;;13.63;56.83;99938.22;4311715;33;20023;-85
2022/10/22 06:54:53;;;;;;;;;;;;;;;13.82;56.46;99945.25;4312956;33;20346;-85
2022/10/22 06:57:20;;;;;;;;;;;;;;;14.24;55.39;99938.47;4319182;33;20048;-85
2022/10/22 06:59:47;;;;;;;;;;;;;;;14.51;54.81;99929.00;4311098;33;20322;-86
2022/10/22 07:02:14;;;;;;;;;;;;;;;14.64;54.63;99938.56;4313190;33;19981;-84
2022/10/22 07:04:41;;;;;;;;;;;;;;;14.84;53.20;99941.19;4321300;33;20011;-83
2022/10/22 07:07:07;;;;;;;;;;;;;;;14.75;52.88;99947.25;4322239;33;19996;-82
2022/10/22 07:09:34;;;;;;;;;;;;;;;14.82;52.84;99933.37;4329807;33;19976;-84
2022/10/22 07:12:01;;;;;;;;;;;;;;;14.93;52.28;99929.88;4311152;33;20006;-83
2022/10/22 07:14:28;;;;;;;;;;;;;;;14.97;52.42;99922.09;4312296;33;20035;-85
2022/10/22 07:16:55;;;;;;;;;;;;;;;15.00;52.68;99922.09;4312978;33;19997;-86
2022/10/22 07:19:21;;;;;;;;;;;;;;;15.04;53.38;99922.94;4319217;33;19995;-83
2022/10/22 07:21:48;;;;;;;;;;;;;;;15.00;53.43;99926.44;4312614;33;19998;-82
2022/10/22 07:24:15;;;;;;;;;;;;;;;15.14;52.21;99914.22;4311606;33;19984;-84
2022/10/22 07:26:42;;;;;;;;;;;;;;;15.19;50.47;99914.22;4321484;33;20826;-81
2022/10/22 07:29:09;;;;;;;;;;;;;;;15.12;51.41;99921.19;4312070;33;19991;-84
2022/10/22 07:31:36;;;;;;;;;;;;;;;15.25;51.52;99922.94;4319857;33;19995;-89
2022/10/22 07:34:03;;;;;;;;;;;;;;;15.43;50.88;99927.22;4312802;33;19998;-91
2022/10/22 07:36:31;;;;;;;;;;;;;;;15.38;51.52;99931.59;4312212;33;19998;-87
2022/10/22 07:38:58;;;;;;;;;;;;;;;15.65;51.18;99928.03;4020193;33;10000648;-89
2022/10/22 07:41:26;;;;;;;;;;;;;;;15.76;51.10;99926.31;4310272;33;19980;-87
2022/10/22 07:43:53;;;;;;;;;;;;;;;16.04;50.65;99907.88;4310571;33;20007;-83
2022/10/22 07:46:20;;;;;;;;;;;;;;;16.44;47.60;99910.28;4298539;33;20010;-87
2022/10/22 07:48:47;;;;;;;;;;;;;;;16.47;48.08;99910.25;4310955;33;20347;-86
2022/10/22 07:51:14;;;;;;;;;;;;;;;16.98;47.42;99913.38;4309870;33;19990;-82
2022/10/22 07:53:41;;;;;;;;;;;;;;;17.14;46.16;99921.94;4311605;33;19988;-86
2022/10/22 07:56:08;;;;;;;;;;;;;;;17.52;45.45;99926.78;4328937;33;19983;-87
2022/10/22 07:58:42;;;;;;;;;;;;;;;17.91;44.69;99929.88;4226793;33;10010739;-87
2022/10/22 08:01:09;;;;;;;;;;;;;;;18.00;44.03;99919.28;3864805;33;5012232;-86
2022/10/22 08:03:36;;;;;;;;;;;;;;;18.39;43.92;99916.97;4312078;33;20340;-85
2022/10/22 08:06:03;;;;;;;;;;;;;;;18.49;42.75;99918.56;4310636;33;20810;-83
2022/10/22 08:08:29;;;;;;;;;;;;;;;18.64;43.19;99921.88;4310619;33;19984;-84
2022/10/22 08:10:57;;;;;;;;;;;;;;;18.75;41.51;99925.22;4311843;33;19991;-86
2022/10/22 08:13:25;;;;;;;;;;;;;;;18.82;41.19;99932.06;4312071;33;19980;-87
2022/10/22 08:15:52;;;;;;;;;;;;;;;18.82;41.25;99929.47;4319961;33;19991;-85
2022/10/22 08:18:23;;;;;;;;;;;;;;;18.77;41.27;99916.44;4314128;33;19984;-86
2022/10/22 08:20:50;;;;;;;;;;;;;;;19.01;40.67;99917.75;4325072;33;19984;-90
2022/10/22 08:23:17;;;;;;;;;;;;;;;19.01;41.18;99917.75;4324724;33;19980;-90
2022/10/22 08:25:44;;;;;;;;;;;;;;;19.00;41.41;99916.03;4320277;33;19984;-84
2022/10/22 08:28:11;;;;;;;;;;;;;;;19.11;40.37;99918.47;4315789;33;20031;-85
2022/10/22 08:30:39;;;;;;;;;;;;;;;19.03;42.07;99916.00;4310929;33;19976;-87
2022/10/22 08:33:06;;;;;;;;;;;;;;;19.21;41.07;99919.19;4312166;33;20036;-88
2022/10/22 08:35:32;;;;;;;;;;;;;;;18.97;41.47;99921.34;4317505;33;19983;-85
2022/10/22 08:37:59;;;;;;;;;;;;;;;19.08;41.52;99925.53;4314911;33;19997;-88
2022/10/22 08:40:26;;;;;;;;;;;;;;;18.83;42.28;99923.34;4313312;33;19984;-87
2022/10/22 08:42:53;;;;;;;;;;;;;;;18.78;41.85;99925.16;4318708;33;19995;-88
2022/10/22 08:45:24;;;;;;;;;;;;;;;18.67;42.07;99916.56;4326623;33;20031;-88
2022/10/22 08:47:51;;;;;;;;;;;;;;;18.72;42.41;99925.22;4323971;33;19988;-86
2022/10/22 08:50:22;;;;;;;;;;;;;;;18.47;44.35;99936.06;4317272;33;19980;-83
2022/10/22 08:52:50;;;;;;;;;;;;;;;18.37;43.44;99929.22;4311109;33;20015;-85
2022/10/22 08:55:17;;;;;;;;;;;;;;;18.16;44.70;99934.78;4310586;33;20007;-84
2022/10/22 08:57:59;;;;;;;;;;;;;;;18.31;44.11;99934.56;4317221;33;20007;-85
2022/10/22 09:00:30;;;;;;;;;;;;;;;18.48;44.43;99922.09;4305301;33;20036;-88
2022/10/22 09:03:00;;;;;;;;;;;;;;;18.44;44.68;99924.75;4301152;33;19984;-84
2022/10/22 09:05:30;;;;;;;;;;;;;;;18.12;44.90;99940.06;4298994;33;20251;-88
2022/10/22 09:07:56;;;;;;;;;;;;;;;18.22;44.76;99943.44;4302145;33;19984;-86
2022/10/22 09:10:24;;;;;;;;;;;;;;;18.31;44.53;99945.03;4311018;33;20445;-84
2022/10/22 09:12:51;;;;;;;;;;;;;;;18.25;44.81;99930.28;4303845;33;20007;-87
2022/10/22 09:15:18;;;;;;;;;;;;;;;18.40;43.80;99929.19;4296687;33;20040;-87
2022/10/22 09:18:14;;;;;;;;;;;;;;;18.34;44.58;99929.28;4307481;33;20350;-90
2022/10/22 09:20:41;;;;;;;;;;;;;;;18.36;44.51;99922.28;4259742;33;19997;-92
2022/10/22 09:23:18;;;;;;;;;;;;;;;18.27;45.58;99922.41;4290201;33;20051;-89
2022/10/22 09:25:45;;;;;;;;;;;;;;;18.44;44.98;99920.41;4313352;33;20022;-89
2022/10/22 09:28:12;;;;;;;;;;;;;;;18.61;44.42;99927.16;4298059;33;20040;-85
2022/10/22 09:30:40;;;;;;;;;;;;;;;18.49;45.08;99939.53;4298858;33;20028;-86
2022/10/22 09:33:14;;;;;;;;;;;;;;;18.49;43.98;99942.16;4302246;33;19980;-86
2022/10/22 09:35:46;;;;;;;;;;;;;;;18.41;43.84;99946.69;4314044;33;20035;-84
2022/10/22 09:38:13;;;;;;;;;;;;;;;18.59;43.59;99951.62;4298363;33;19980;-90
2022/10/22 09:40:41;;;;;;;;;;;;;;;18.45;44.45;99948.34;4300436;33;20336;-88
2022/10/22 09:43:10;;;;;;;;;;;;;;;18.36;45.09;99943.25;4296456;33;20008;-86
2022/10/22 09:45:37;;;;;;;;;;;;;;;18.26;45.43;99954.75;4310386;33;20334;-89
2022/10/22 09:48:13;;;;;;;;;;;;;;;18.35;46.28;99954.63;4309839;33;20011;-86
2022/10/22 09:50:42;;;;;;;;;;;;;;;18.30;45.75;99940.69;4309788;33;19972;-87
2022/10/22 09:53:13;;;;;;;;;;;;;;;18.27;45.93;99932.87;4319400;33;20348;-88
2022/10/22 09:55:41;;;;;;;;;;;;;;;18.39;46.35;99943.19;4322011;33;19980;-84
2022/10/22 09:58:11;;;;;;;;;;;;;;;18.49;45.22;99934.31;4321656;33;20040;-84
2022/10/22 10:00:39;;;;;;;;;;;;;;;18.56;44.34;99941.19;4301948;33;20006;-88
2022/10/22 10:03:11;;;;;;;;;;;;;;;18.49;44.90;99944.78;4317079;33;21208;-90
2022/10/22 10:05:40;;;;;;;;;;;;;;;18.42;45.20;99932.66;4303775;33;20003;-85
2022/10/22 10:08:11;;;;;;;;;;;;;;;18.53;45.43;99933.37;4313053;33;20006;-86
2022/10/22 10:10:54;;;;;;;;;;;;;;;18.38;44.66;99936.22;4324850;33;19991;-87
2022/10/22 10:13:24;;;;;;;;;;;;;;;18.48;45.30;99932.59;4318795;33;20007;-89
2022/10/22 10:16:00;;;;;;;;;;;;;;;18.65;44.99;99913.09;4318002;33;19992;-89
2022/10/22 10:18:31;;;;;;;;;;;;;;;18.74;44.69;99913.00;4318636;33;19984;-86
2022/10/22 10:21:20;;;;;;;;;;;;;;;18.65;44.48;99913.09;4318559;33;20004;-86
2022/10/22 10:23:57;;;;;;;;;;;;;;;18.72;44.55;99923.50;4314711;33;19979;-88
2022/10/22 10:26:36;;;;;;;;;;;;;;;18.57;44.31;99927.22;4311714;33;19988;-88
2022/10/22 10:29:16;;;;;;;;;;;;;;;18.74;44.67;99928.72;4311619;33;19999;-84
2022/10/22 10:32:05;;;;;;;;;;;;;;;18.71;44.65;99913.00;4310491;33;19980;-87
2022/10/22 10:34:43;;;;;;;;;;;;;;;18.77;44.87;99919.06;4311311;33;19985;-85
2022/10/22 10:37:16;;;;;;;;;;;;;;;18.80;44.86;99913.75;4311400;33;20004;-87
2022/10/22 10:39:52;;;;;;;;;;;;;;;18.79;44.27;99911.16;4311532;33;19996;-86
2022/10/22 10:42:25;;;;;;;;;;;;;;;18.66;45.49;99920.06;4312366;33;20031;-86
2022/10/22 10:45:10;;;;;;;;;;;;;;;18.71;44.94;99918.25;4317687;33;19995;-86
2022/10/22 10:47:43;;;;;;;;;;;;;;;18.62;44.81;99921.88;4318043;33;20035;-87
2022/10/22 10:50:23;;;;;;;;;;;;;;;18.80;44.73;99933.88;4318772;33;20002;-86
2022/10/22 10:52:50;;;;;;;;;;;;;;;18.79;44.51;99942.63;4311540;33;20027;-85
2022/10/22 10:55:32;;;;;;;;;;;;;;;18.77;44.68;99944.41;4311812;33;20023;-84
2022/10/22 10:58:11;;;;;;;;;;;;;;;18.66;45.89;99938.44;4310717;33;20433;-87
2022/10/22 11:00:40;;;;;;;;;;;;;;;18.77;46.63;99944.41;4312885;33;20002;-89
2022/10/22 11:03:13;;;;;;;;;;;;;;;18.81;45.35;99946.94;4313609;33;19976;-90
2022/10/22 11:05:44;;;;;;;;;;;;;;;18.42;45.66;99948.41;4319928;33;20476;-88
2022/10/22 11:08:25;;;;;;;;;;;;;;;18.72;45.79;99938.34;4315154;33;20101;-86
2022/10/22 11:10:53;;;;;;;;;;;;;;;18.54;46.01;99939.50;4317778;33;20002;-86
2022/10/22 11:13:41;;;;;;;;;;;;;;;18.76;45.72;99932.16;4312607;33;19976;-89
2022/10/22 11:16:26;;;;;;;;;;;;;;;18.92;46.13;99928.44;4305474;33;19976;-90
2022/10/22 11:19:11;;;;;;;;;;;;;;;18.85;46.44;99925.91;4308314;33;21048;-90
2022/10/22 11:21:53;;;;;;;;;;;;;;;18.92;45.66;99923.19;4305627;33;19983;-90
2022/10/22 11:24:29;;;;;;;;;;;;;;;18.84;46.17;99919.81;4308407;33;19983;-83
2022/10/22 11:27:00;;;;;;;;;;;;;;;18.92;45.54;99911.81;4309302;33;19995;-90
2022/10/22 11:29:28;;;;;;;;;;;;;;;19.02;45.52;99909.03;4295927;33;19992;-93
2022/10/22 11:32:00;;;;;;;;;;;;;;;18.89;45.79;99906.59;4305136;33;19995;-88
2022/10/22 11:34:30;;;;;;;;;;;;;;;19.07;45.58;99905.44;4319773;33;19968;-87
2022/10/22 11:37:06;;;;;;;;;;;;;;;19.01;45.74;99902.03;4317911;33;20338;-87
2022/10/22 11:39:33;;;;;;;;;;;;;;;19.07;45.74;99905.44;4310075;33;20055;-87
2022/10/22 11:42:10;;;;;;;;;;;;;;;19.02;45.13;99908.16;4311702;33;19984;-82
2022/10/22 11:44:46;;;;;;;;;;;;;;;18.97;45.87;99902.97;4305377;33;19989;-88
2022/10/22 11:47:18;;;;;;;;;;;;;;;19.27;44.98;99903.31;4311128;33;20002;-86
2022/10/22 11:49:55;;;;;;;;;;;;;;;19.34;45.17;99899.69;4311650;33;19995;-88
2022/10/22 11:52:24;;;;;;;;;;;;;;;19.27;45.94;99884.94;4294915;33;19984;-87
2022/10/22 11:54:56;;;;;;;;;;;;;;;19.21;46.48;99893.81;4307799;33;19996;-87
2022/10/22 11:57:26;;;;;;;;;;;;;;;19.28;46.71;99891.94;4307333;33;20323;-86
2022/10/22 11:59:57;;;;;;;;;;;;;;;19.36;46.20;99889.16;4303616;33;20020;-87
2022/10/22 12:02:30;;;;;;;;;;;;;;;19.16;46.20;99879.03;4308645;33;19984;-83
2022/10/22 12:05:36;;;;;;;;;;;;;;;19.28;45.86;99889.31;4310944;33;19976;-86
2022/10/22 12:08:14;;;;;;;;;;;;;;;19.55;45.66;99887.91;4265018;33;20044;-86
2022/10/22 12:10:47;;;;;;;;;;;;;;;19.55;46.11;99877.41;4263117;33;20393;-81
2022/10/22 12:13:20;;;;;;;;;;;;;;;19.34;46.94;99881.31;4292352;33;19999;-84
2022/10/22 12:15:48;;;;;;;;;;;;;;;19.39;46.17;99881.22;4316878;33;19984;-83
2022/10/22 12:18:15;;;;;;;;;;;;;;;18.89;47.27;99881.28;4322596;33;20004;-89
2022/10/22 12:20:42;;;;;;;;;;;;;;;19.35;46.93;99883.03;4323230;33;20363;-87
2022/10/22 12:23:10;;;;;;;;;;;;;;;19.29;46.07;99891.03;4323683;33;20076;-85
2022/10/22 12:25:39;;;;;;;;;;;;;;;19.27;47.32;99871.81;4323881;33;20010;-89
2022/10/22 12:28:09;;;;;;;;;;;;;;;19.36;47.13;99871.66;4320653;33;19988;-88
2022/10/22 12:30:36;;;;;;;;;;;;;;;19.38;47.03;99874.25;4323194;33;20003;-87
2022/10/22 12:33:07;;;;;;;;;;;;;;;19.39;47.55;99871.59;4318182;33;19988;-87
2022/10/22 12:35:40;;;;;;;;;;;;;;;19.33;48.42;99874.31;4319180;33;19983;-87
2022/10/22 12:38:15;;;;;;;;;;;;;;;19.30;48.86;99871.75;4318789;33;20028;-83
2022/10/22 12:40:43;;;;;;;;;;;;;;;19.42;48.50;99871.53;4322785;33;19996;-84
2022/10/22 12:43:18;;;;;;;;;;;;;;;19.39;48.96;99876.84;4326553;33;20348;-86
2022/10/22 12:45:47;;;;;;;;;;;;;;;19.47;48.54;99874.94;4326381;33;20011;-84
2022/10/22 12:48:16;;;;;;;;;;;;;;;19.39;48.60;99876.84;4308360;33;20007;-84
2022/10/22 12:50:49;;;;;;;;;;;;;;;19.35;48.72;99875.19;4324567;33;20022;-85
2022/10/22 12:53:24;;;;;;;;;;;;;;;19.31;48.89;99883.16;4324777;33;20492;-84
2022/10/22 12:55:51;;;;;;;;;;;;;;;19.25;49.07;99889.38;4324971;33;20746;-81